createdAt,value
2023-12-08T00:01:17.080Z,101225.63
2023-12-08T00:03:47.433Z,101218.16
2023-12-08T00:06:18.054Z,101217.26
2023-12-08T00:08:48.632Z,101213.73
2023-12-08T00:11:18.902Z,101209.80
2023-12-08T00:13:49.177Z,101214.40
2023-12-08T00:16:19.427Z,101217.61
2023-12-08T00:18:49.779Z,101220.09
2023-12-08T00:21:20.110Z,101221.14
2023-12-08T00:23:50.587Z,101221.68
2023-12-08T00:26:20.827Z,101220.44
2023-12-08T00:28:51.160Z,101219.20
2023-12-08T00:31:21.636Z,101212.60
2023-12-08T00:33:52.834Z,101210.83
2023-12-08T00:36:23.962Z,101215.79
2023-12-08T00:38:55.195Z,101215.07
2023-12-08T00:41:27.049Z,101203.35
2023-12-08T00:43:57.316Z,101200.21
2023-12-08T00:46:27.601Z,101203.41
2023-12-08T00:48:58.219Z,101206.12
2023-12-08T00:51:28.633Z,101205.27
2023-12-08T00:53:58.884Z,101196.55
2023-12-08T00:56:29.442Z,101192.48
2023-12-08T00:58:59.763Z,101190.70
2023-12-08T01:01:30.005Z,101189.88
2023-12-08T01:04:00.710Z,101182.94
2023-12-08T01:06:30.944Z,101183.83
2023-12-08T01:09:01.426Z,101182.40
2023-12-08T01:11:31.701Z,101182.76
2023-12-08T01:14:01.931Z,101179.92
2023-12-08T01:16:32.507Z,101182.07
2023-12-08T01:19:02.908Z,101176.92
2023-12-08T01:21:33.213Z,101177.28
2023-12-08T01:24:04.073Z,101181.58
2023-12-08T01:26:34.818Z,101184.23
2023-12-08T01:29:05.106Z,101182.29
2023-12-08T01:31:35.348Z,101176.04
2023-12-08T01:34:05.756Z,101170.56
2023-12-08T01:36:42.403Z,101172.86
2023-12-08T01:39:15.010Z,101169.33
2023-12-08T01:41:45.386Z,101170.92
2023-12-08T01:44:15.656Z,101164.19
2023-12-08T01:46:45.905Z,101159.92
2023-12-08T01:49:16.437Z,101152.27
2023-12-08T01:51:46.927Z,101145.52
2023-12-08T01:54:17.322Z,101143.39
2023-12-08T01:56:47.985Z,101142.68
2023-12-08T01:59:18.439Z,101147.13
2023-12-08T02:01:48.699Z,101148.55
2023-12-08T02:04:18.976Z,101148.16
2023-12-08T02:06:50.432Z,101143.02
2023-12-08T02:09:21.015Z,101139.12
2023-12-08T02:11:51.278Z,101137.13
2023-12-08T02:14:21.708Z,101136.42
2023-12-08T02:16:53.152Z,101128.25
2023-12-08T02:19:23.551Z,101128.95
2023-12-08T02:21:53.910Z,101131.96
2023-12-08T02:24:24.152Z,101127.17
2023-12-08T02:26:54.423Z,101121.28
2023-12-08T02:29:24.735Z,101119.51
2023-12-08T02:31:57.337Z,101117.73
2023-12-08T02:34:27.711Z,101117.18
2023-12-08T02:36:57.962Z,101110.12
2023-12-08T02:39:28.639Z,101107.77
2023-12-08T02:41:58.913Z,101103.51
2023-12-08T02:44:29.487Z,101108.66
2023-12-08T02:46:59.801Z,101104.03
2023-12-08T02:49:30.332Z,101102.43
2023-12-08T02:52:00.866Z,101094.81
2023-12-08T02:54:31.173Z,101095.34
2023-12-08T02:57:01.489Z,101091.23
2023-12-08T02:59:31.759Z,101090.69
2023-12-08T03:02:02.033Z,101087.84
2023-12-08T03:04:32.305Z,101074.87
2023-12-08T03:07:02.569Z,101075.39
2023-12-08T03:09:32.808Z,101076.64
2023-12-08T03:12:03.092Z,101077.16
2023-12-08T03:14:33.408Z,101068.63
2023-12-08T03:17:03.745Z,101070.23
2023-12-08T03:19:33.992Z,101075.59
2023-12-08T03:22:04.420Z,101076.10
2023-12-08T03:24:34.695Z,101072.17
2023-12-08T03:27:05.555Z,101065.08
2023-12-08T03:29:39.959Z,101069.86
2023-12-08T03:32:10.244Z,101060.10
2023-12-08T03:34:40.499Z,101056.17
2023-12-08T03:37:10.753Z,101051.56
2023-12-08T03:39:40.978Z,101049.95
2023-12-08T03:42:11.443Z,101044.08
2023-12-08T03:44:41.767Z,101041.08
2023-12-08T03:47:12.018Z,101035.91
2023-12-08T03:49:42.374Z,101032.36
2023-12-08T03:52:12.687Z,101030.05
2023-12-08T03:54:42.951Z,101031.64
2023-12-08T03:57:13.248Z,101033.23
2023-12-08T03:59:44.607Z,101029.86
2023-12-08T04:02:14.968Z,101027.19
2023-12-08T04:04:46.117Z,101023.10
2023-12-08T04:07:16.409Z,101022.55
2023-12-08T04:09:46.620Z,101020.77
2023-12-08T04:12:16.909Z,101019.52
2023-12-08T04:14:47.194Z,101018.45
2023-12-08T04:17:17.542Z,101014.54
2023-12-08T04:19:47.767Z,101012.20
2023-12-08T04:22:18.083Z,101011.65
2023-12-08T04:24:48.282Z,101006.35
2023-12-08T04:27:18.528Z,100999.22
2023-12-08T04:29:48.829Z,100992.27
2023-12-08T04:32:19.136Z,100982.14
2023-12-08T04:34:49.402Z,100975.90
2023-12-08T04:37:19.666Z,100966.14
2023-12-08T04:39:49.903Z,100961.16
2023-12-08T04:42:20.178Z,100955.65
2023-12-08T04:44:50.412Z,100939.98
2023-12-08T04:47:20.667Z,100928.64
2023-12-08T04:49:51.173Z,100930.77
2023-12-08T04:52:21.501Z,100935.56
2023-12-08T04:54:51.739Z,100933.25
2023-12-08T04:57:22.091Z,100926.14
2023-12-08T04:59:52.658Z,100924.19
2023-12-08T05:02:22.973Z,100923.98
2023-12-08T05:04:53.268Z,100922.04
2023-12-08T05:07:24.029Z,100940.33
2023-12-08T05:09:54.519Z,100960.44
2023-12-08T05:12:24.744Z,100959.23
2023-12-08T05:14:55.064Z,100942.78
2023-12-08T05:17:25.676Z,100949.07
2023-12-08T05:19:56.223Z,100955.87
2023-12-08T05:22:26.512Z,100956.22
2023-12-08T05:24:56.734Z,100955.17
2023-12-08T05:27:27.681Z,100941.48
2023-12-08T05:29:58.075Z,100934.56
2023-12-08T05:32:29.533Z,100939.19
2023-12-08T05:34:59.834Z,100954.48
2023-12-08T05:37:30.047Z,100957.12
2023-12-08T05:40:00.473Z,100957.99
2023-12-08T05:42:30.822Z,100953.57
2023-12-08T05:45:01.301Z,100948.05
2023-12-08T05:47:31.619Z,100942.73
2023-12-08T05:50:02.179Z,100942.54
2023-12-08T05:52:32.917Z,100943.39
2023-12-08T05:55:03.629Z,100952.48
2023-12-08T05:57:33.965Z,100947.35
2023-12-08T06:00:06.411Z,100946.92
2023-12-08T06:02:36.718Z,100956.71
2023-12-08T06:05:07.815Z,100956.17
2023-12-08T06:07:38.264Z,100943.89
2023-12-08T06:10:10.412Z,100938.55
2023-12-08T06:12:40.892Z,100938.55
2023-12-08T06:15:13.042Z,100941.21
2023-12-08T06:17:43.968Z,100950.64
2023-12-08T06:20:15.469Z,100957.20
2023-12-08T06:22:45.886Z,100955.94
2023-12-08T06:25:16.748Z,100947.05
2023-12-08T06:27:47.025Z,100943.33
2023-12-08T06:30:18.165Z,100935.48
2023-12-08T06:32:48.665Z,100920.55
2023-12-08T06:35:19.091Z,100906.52
2023-12-08T06:37:49.406Z,100905.96
2023-12-08T06:40:19.748Z,100915.73
2023-12-08T06:42:49.962Z,100912.20
2023-12-08T06:45:20.281Z,100917.51
2023-12-08T06:47:50.754Z,100916.08
2023-12-08T06:50:21.541Z,100913.39
2023-12-08T06:52:52.657Z,100905.39
2023-12-08T06:55:22.985Z,100906.80
2023-12-08T06:57:53.253Z,100907.87
2023-12-08T07:00:23.967Z,100908.92
2023-12-08T07:02:54.378Z,100913.90
2023-12-08T07:05:24.652Z,100922.45
2023-12-08T07:07:56.212Z,100932.06
2023-12-08T07:10:26.481Z,100929.73
2023-12-08T07:12:56.726Z,100927.42
2023-12-08T07:15:26.949Z,100914.25
2023-12-08T07:17:57.637Z,100906.23
2023-12-08T07:20:28.931Z,100897.52
2023-12-08T07:22:59.178Z,100900.00
2023-12-08T07:25:29.440Z,100898.42
2023-12-08T07:27:59.692Z,100897.87
2023-12-08T07:30:30.099Z,100895.38
2023-12-08T07:33:00.408Z,100895.73
2023-12-08T07:35:30.689Z,100899.29
2023-12-08T07:38:01.025Z,100903.05
2023-12-08T07:40:31.289Z,100904.08
2023-12-08T07:43:01.528Z,100900.87
2023-12-08T07:45:31.804Z,100903.20
2023-12-08T07:48:02.151Z,100902.27
2023-12-08T07:50:32.553Z,100904.56
2023-12-08T07:53:03.917Z,100902.77
2023-12-08T07:55:34.264Z,100903.45
2023-12-08T07:58:04.694Z,100902.34
2023-12-08T08:00:35.071Z,100904.43
2023-12-08T08:03:06.420Z,100904.21
2023-12-08T08:05:36.984Z,100896.70
2023-12-08T08:08:07.698Z,100891.36
2023-12-08T08:10:37.959Z,100888.80
2023-12-08T08:13:08.221Z,100882.56
2023-12-08T08:15:38.517Z,100886.42
2023-12-08T08:18:08.865Z,100889.77
2023-12-08T08:20:39.244Z,100890.11
2023-12-08T08:23:09.566Z,100887.39
2023-12-08T08:25:39.829Z,100878.80
2023-12-08T08:28:10.836Z,100869.31
2023-12-08T08:30:44.329Z,100873.01
2023-12-08T08:33:14.663Z,100867.61
2023-12-08T08:35:45.064Z,100861.19
2023-12-08T08:38:15.467Z,100857.08
2023-12-08T08:40:45.944Z,100861.49
2023-12-08T08:43:16.289Z,100864.32
2023-12-08T08:45:46.532Z,100865.35
2023-12-08T08:48:20.092Z,100871.73
2023-12-08T08:50:51.471Z,100872.91
2023-12-08T08:53:21.823Z,100867.71
2023-12-08T08:55:52.058Z,100866.98
2023-12-08T08:58:22.338Z,100864.84
2023-12-08T09:00:52.629Z,100864.26
2023-12-08T09:03:22.985Z,100870.27
2023-12-08T09:05:53.299Z,100873.08
2023-12-08T09:08:23.560Z,100866.86
2023-12-08T09:10:53.865Z,100865.55
2023-12-08T09:13:24.132Z,100862.02
2023-12-08T09:15:54.546Z,100868.19
2023-12-08T09:18:24.930Z,100866.07
2023-12-08T09:20:55.470Z,100869.42
2023-12-08T09:23:25.829Z,100858.92
2023-12-08T09:25:56.108Z,100854.65
2023-12-08T09:28:26.370Z,100856.95
2023-12-08T09:30:56.724Z,100875.15
2023-12-08T09:33:30.056Z,100877.46
2023-12-08T09:36:00.929Z,100871.14
2023-12-08T09:38:34.399Z,100853.31
2023-12-08T09:41:05.953Z,100844.86
2023-12-08T09:43:41.446Z,100837.29
2023-12-08T09:46:11.757Z,100830.20
2023-12-08T09:48:42.150Z,100822.23
2023-12-08T09:51:12.551Z,100819.74
2023-12-08T09:53:42.832Z,100817.95
2023-12-08T09:56:13.367Z,100815.80
2023-12-08T09:58:45.849Z,100822.73
2023-12-08T10:01:18.222Z,100827.39
2023-12-08T10:03:48.591Z,100828.98
2023-12-08T10:06:18.983Z,100826.33
2023-12-08T10:08:49.441Z,100819.23
2023-12-08T10:11:19.689Z,100808.34
2023-12-08T10:13:50.094Z,100804.45
2023-12-08T10:16:20.409Z,100799.30
2023-12-08T10:18:50.780Z,100795.20
2023-12-08T10:21:21.571Z,100789.52
2023-12-08T10:23:51.854Z,100784.17
2023-12-08T10:26:22.109Z,100784.21
2023-12-08T10:28:52.344Z,100786.52
2023-12-08T10:31:23.128Z,100785.98
2023-12-08T10:33:53.537Z,100778.16
2023-12-08T10:36:23.973Z,100774.42
2023-12-08T10:38:54.548Z,100774.96
2023-12-08T10:41:24.821Z,100769.63
2023-12-08T10:43:55.028Z,100766.07
2023-12-08T10:46:25.332Z,100760.23
2023-12-08T10:48:55.651Z,100762.33
2023-12-08T10:51:26.007Z,100759.02
2023-12-08T10:53:56.379Z,100758.98
2023-12-08T10:56:26.656Z,100760.27
2023-12-08T10:59:00.463Z,100757.59
2023-12-08T11:01:30.827Z,100757.22
2023-12-08T11:04:06.639Z,100750.27
2023-12-08T11:06:39.648Z,100743.52
2023-12-08T11:09:11.601Z,100746.39
2023-12-08T11:11:44.592Z,100742.14
2023-12-08T11:14:18.938Z,100740.19
2023-12-08T11:16:51.063Z,100746.43
2023-12-08T11:19:23.322Z,100744.30
2023-12-08T11:21:54.660Z,100741.08
2023-12-08T11:24:24.933Z,100738.35
2023-12-08T11:26:56.088Z,100737.23
2023-12-08T11:29:28.921Z,100733.38
2023-12-08T11:32:01.559Z,100730.42
2023-12-08T11:34:35.776Z,100721.67
2023-12-08T11:37:07.640Z,100719.13
2023-12-08T11:39:47.319Z,100713.60
2023-12-08T11:42:18.439Z,100714.67
2023-12-08T11:44:49.140Z,100732.38
2023-12-08T11:47:22.070Z,100724.67
2023-12-08T11:49:53.263Z,100713.85
2023-12-08T11:52:27.169Z,100717.65
2023-12-08T11:55:10.441Z,100716.81
2023-12-08T11:57:44.070Z,100712.59
2023-12-08T12:00:17.504Z,100714.23
2023-12-08T12:02:48.400Z,100702.36
2023-12-08T12:05:18.729Z,100701.83
2023-12-08T12:07:50.578Z,100708.58
2023-12-08T12:10:21.054Z,100708.77
2023-12-08T12:12:53.898Z,100703.27
2023-12-08T12:15:26.440Z,100705.21
2023-12-08T12:17:56.920Z,100709.63
2023-12-08T12:20:27.235Z,100703.44
2023-12-08T12:22:57.830Z,100709.64
2023-12-08T12:25:28.136Z,100708.06
2023-12-08T12:27:58.712Z,100710.94
2023-12-08T12:30:29.237Z,100708.23
2023-12-08T12:32:59.798Z,100711.79
2023-12-08T12:35:30.548Z,100715.04
2023-12-08T12:38:00.788Z,100729.79
2023-12-08T12:40:31.024Z,100725.52
2023-12-08T12:43:01.257Z,100700.88
2023-12-08T12:45:32.367Z,100697.80
2023-12-08T12:48:10.456Z,100691.83
2023-12-08T12:50:50.865Z,100693.10
2023-12-08T12:53:21.304Z,100690.80
2023-12-08T12:55:51.544Z,100683.34
2023-12-08T12:58:22.496Z,100678.73
2023-12-08T13:00:53.074Z,100674.64
2023-12-08T13:03:24.746Z,100669.69
2023-12-08T13:05:56.937Z,100672.17
2023-12-08T13:08:27.322Z,100668.63
2023-12-08T13:10:57.781Z,100675.20
2023-12-08T13:13:28.045Z,100676.99
2023-12-08T13:15:58.306Z,100673.79
2023-12-08T13:18:28.770Z,100676.46
2023-12-08T13:20:59.040Z,100672.20
2023-12-08T13:23:29.470Z,100671.13
2023-12-08T13:25:59.755Z,100671.69
2023-12-08T13:28:30.126Z,100669.02
2023-12-08T13:31:00.361Z,100665.13
2023-12-08T13:33:30.656Z,100658.70
2023-12-08T13:36:01.010Z,100660.99
2023-12-08T13:38:31.293Z,100667.98
2023-12-08T13:41:01.532Z,100675.58
2023-12-08T13:43:31.871Z,100672.96
2023-12-08T13:46:02.437Z,100670.27
2023-12-08T13:48:32.808Z,100675.81
2023-12-08T13:53:36.798Z,100673.30
2023-12-08T13:56:07.880Z,100676.53
2023-12-08T13:58:38.335Z,100675.46
2023-12-08T14:01:08.805Z,100685.13
2023-12-08T14:03:41.221Z,100688.66
2023-12-08T14:06:12.731Z,100679.11
2023-12-08T14:08:43.862Z,100674.39
2023-12-08T14:11:14.104Z,100679.24
2023-12-08T14:13:44.605Z,100680.32
2023-12-08T14:16:14.854Z,100673.41
2023-12-08T14:18:45.293Z,100671.65
2023-12-08T14:21:16.492Z,100670.42
2023-12-08T14:23:47.032Z,100672.55
2023-12-08T14:26:17.391Z,100671.86
2023-12-08T14:28:47.731Z,100667.40
2023-12-08T14:31:18.062Z,100666.86
2023-12-08T14:33:48.485Z,100664.41
2023-12-08T14:36:19.070Z,100664.55
2023-12-08T14:38:50.051Z,100658.52
2023-12-08T14:41:20.293Z,100653.21
2023-12-08T14:43:50.510Z,100650.19
2023-12-08T14:46:21.592Z,100650.75
2023-12-08T14:48:52.706Z,100647.55
2023-12-08T14:51:24.469Z,100643.80
2023-12-08T14:53:54.768Z,100641.88
2023-12-08T14:56:26.770Z,100643.83
2023-12-08T14:58:57.037Z,100647.20
2023-12-08T15:01:27.361Z,100651.11
2023-12-08T15:03:57.638Z,100652.54
2023-12-08T15:06:27.977Z,100656.64
2023-12-08T15:08:58.324Z,100654.67
2023-12-08T15:11:28.638Z,100653.80
2023-12-08T15:13:58.926Z,100649.52
2023-12-08T15:16:29.360Z,100648.64
2023-12-08T15:18:59.738Z,100651.48
2023-12-08T15:21:30.079Z,100651.30
2023-12-08T15:24:00.378Z,100653.45
2023-12-08T15:26:30.769Z,100652.23
2023-12-08T15:29:01.016Z,100653.99
2023-12-08T15:31:32.892Z,100655.79
2023-12-08T15:34:03.410Z,100653.83
2023-12-08T15:36:33.645Z,100652.80
2023-12-08T15:39:04.479Z,100650.83
2023-12-08T15:41:34.843Z,100651.70
2023-12-08T15:44:05.169Z,100647.83
2023-12-08T15:46:36.377Z,100649.58
2023-12-08T15:49:06.851Z,100647.10
2023-12-08T15:51:37.339Z,100649.99
2023-12-08T15:54:08.914Z,100658.02
2023-12-08T15:56:43.298Z,100666.77
2023-12-08T15:59:13.652Z,100662.72
2023-12-08T16:01:43.898Z,100661.53
2023-12-08T16:04:14.250Z,100658.20
2023-12-08T16:06:44.703Z,100660.58
2023-12-08T16:09:15.037Z,100663.59
2023-12-08T16:11:45.286Z,100657.92
2023-12-08T16:14:15.504Z,100651.92
2023-12-08T16:16:45.761Z,100648.32
2023-12-08T16:19:16.164Z,100649.42
2023-12-08T16:21:46.432Z,100654.73
2023-12-08T16:24:17.119Z,100659.20
2023-12-08T16:26:47.684Z,100655.63
2023-12-08T16:29:17.938Z,100657.77
2023-12-08T16:31:48.163Z,100659.88
2023-12-08T16:34:18.758Z,100662.36
2023-12-08T16:36:50.266Z,100662.70
2023-12-08T16:39:23.352Z,100659.15
2023-12-08T16:41:54.245Z,100660.91
2023-12-08T16:44:24.613Z,100658.08
2023-12-08T16:46:55.253Z,100658.08
2023-12-08T16:49:26.013Z,100656.45
2023-12-08T16:51:56.326Z,100663.58
2023-12-08T16:54:26.724Z,100656.84
2023-12-08T16:56:57.018Z,100649.00
2023-12-08T16:59:27.347Z,100652.91
2023-12-08T17:01:57.575Z,100661.29
2023-12-08T17:04:28.188Z,100670.90
2023-12-08T17:07:00.194Z,100656.67
2023-12-08T17:09:31.339Z,100663.64
2023-12-08T17:12:01.626Z,100670.45
2023-12-08T17:14:31.884Z,100672.55
2023-12-08T17:17:02.131Z,100678.78
2023-12-08T17:19:32.497Z,100677.04
2023-12-08T17:22:02.764Z,100677.01
2023-12-08T17:24:33.045Z,100675.02
2023-12-08T17:27:03.645Z,100671.08
2023-12-08T17:29:33.899Z,100663.40
2023-12-08T17:32:04.254Z,100659.50
2023-12-08T17:34:35.835Z,100661.08
2023-12-08T17:37:06.577Z,100664.28
2023-12-08T17:39:37.026Z,100672.09
2023-12-08T17:42:07.886Z,100683.27
2023-12-08T17:44:38.107Z,100701.93
2023-12-08T17:47:09.304Z,100683.45
2023-12-08T17:49:40.878Z,100678.16
2023-12-08T17:52:11.454Z,100678.04
2023-12-08T17:54:41.981Z,100680.59
2023-12-08T17:57:12.349Z,100682.73
2023-12-08T17:59:42.612Z,100683.81
2023-12-08T18:02:13.780Z,100679.02
2023-12-08T18:04:44.018Z,100670.65
2023-12-08T18:07:14.261Z,100669.04
2023-12-08T18:09:44.584Z,100672.94
2023-12-08T18:12:14.879Z,100676.34
2023-12-08T18:14:45.135Z,100677.75
2023-12-08T18:17:15.380Z,100684.13
2023-12-08T18:19:45.787Z,100680.73
2023-12-08T18:22:16.123Z,100681.77
2023-12-08T18:24:46.407Z,100683.19
2023-12-08T18:27:23.403Z,100683.15
2023-12-08T18:30:04.736Z,100678.35
2023-12-08T18:32:35.337Z,100678.52
2023-12-08T18:35:05.954Z,100678.50
2023-12-08T18:37:36.259Z,100682.21
2023-12-08T18:40:08.066Z,100684.15
2023-12-08T18:42:38.498Z,100691.95
2023-12-08T18:45:10.531Z,100695.77
2023-12-08T18:47:40.816Z,100700.52
2023-12-08T18:50:11.976Z,100700.92
2023-12-08T18:52:42.363Z,100706.37
2023-12-08T18:55:13.209Z,100709.08
2023-12-08T18:57:43.442Z,100721.09
2023-12-08T19:00:16.195Z,100730.93
2023-12-08T19:02:46.463Z,100710.23
2023-12-08T19:05:16.964Z,100711.64
2023-12-08T19:07:49.525Z,100708.58
2023-12-08T19:10:19.736Z,100711.71
2023-12-08T19:12:49.921Z,100712.16
2023-12-08T19:15:21.503Z,100715.42
2023-12-08T19:17:51.824Z,100718.09
2023-12-08T19:20:23.218Z,100717.23
2023-12-08T19:22:53.693Z,100715.36
2023-12-08T19:25:23.961Z,100716.30
2023-12-08T19:27:54.205Z,100716.11
2023-12-08T19:30:24.545Z,100719.48
2023-12-08T19:32:55.417Z,100720.95
2023-12-08T19:35:25.690Z,100717.34
2023-12-08T19:37:55.967Z,100719.19
2023-12-08T19:40:26.729Z,100713.62
2023-12-08T19:42:56.946Z,100714.02
2023-12-08T19:45:27.184Z,100716.20
2023-12-08T19:47:57.693Z,100714.55
2023-12-08T19:50:27.992Z,100711.36
2023-12-08T19:52:58.222Z,100719.41
2023-12-08T19:55:28.481Z,100716.05
2023-12-08T19:57:58.711Z,100697.09
2023-12-08T20:00:29.273Z,100693.86
2023-12-08T20:03:00.302Z,100694.17
2023-12-08T20:05:30.582Z,100693.39
2023-12-08T20:08:00.790Z,100697.58
2023-12-08T20:10:31.013Z,100701.41
2023-12-08T20:13:01.274Z,100707.31
2023-12-08T20:15:31.533Z,100711.13
2023-12-08T20:18:01.879Z,100709.75
2023-12-08T20:20:32.176Z,100717.95
2023-12-08T20:23:02.394Z,100714.61
2023-12-08T20:25:32.687Z,100714.50
2023-12-08T20:28:02.977Z,100723.75
2023-12-08T20:30:34.590Z,100732.90
2023-12-08T20:33:05.440Z,100722.44
2023-12-08T20:35:35.786Z,100712.08
2023-12-08T20:38:06.281Z,100714.27
2023-12-08T20:40:36.534Z,100713.64
2023-12-08T20:43:06.969Z,100715.11
2023-12-08T20:45:37.434Z,100707.17
2023-12-08T20:48:08.271Z,100709.16
2023-12-08T20:50:38.571Z,100722.71
2023-12-08T20:53:09.629Z,100715.46
2023-12-08T20:55:39.850Z,100716.94
2023-12-08T20:58:10.255Z,100722.12
2023-12-08T21:00:40.864Z,100729.42
2023-12-08T21:03:11.598Z,100729.12
2023-12-08T21:05:41.848Z,100731.43
2023-12-08T21:08:12.098Z,100732.52
2023-12-08T21:10:42.680Z,100729.37
2023-12-08T21:13:12.901Z,100728.14
2023-12-08T21:15:43.181Z,100739.40
2023-12-08T21:18:13.546Z,100743.34
2023-12-08T21:20:43.919Z,100748.14
2023-12-08T21:23:14.118Z,100745.66
2023-12-08T21:25:44.347Z,100742.64
2023-12-08T21:28:14.750Z,100738.94
2023-12-08T21:30:45.706Z,100744.45
2023-12-08T21:33:16.044Z,100737.17
2023-12-08T21:35:46.524Z,100758.91
2023-12-08T21:38:16.829Z,100750.93
2023-12-08T21:40:50.395Z,100737.48
2023-12-08T21:43:20.641Z,100735.57
2023-12-08T21:45:51.273Z,100735.10
2023-12-08T21:48:21.624Z,100730.48
2023-12-08T21:50:52.039Z,100732.50
2023-12-08T21:53:22.395Z,100732.35
2023-12-08T21:55:52.660Z,100736.45
2023-12-08T21:58:22.882Z,100736.13
2023-12-08T22:00:54.241Z,100735.23
2023-12-08T22:03:25.361Z,100737.02
2023-12-08T22:05:55.655Z,100738.08
2023-12-08T22:08:25.898Z,100740.00
2023-12-08T22:10:56.177Z,100741.95
2023-12-08T22:13:26.386Z,100742.86
2023-12-08T22:15:56.606Z,100746.58
2023-12-08T22:18:26.938Z,100745.52
2023-12-08T22:20:57.272Z,100744.06
2023-12-08T22:23:27.952Z,100749.39
2023-12-08T22:25:58.153Z,100749.95
2023-12-08T22:28:28.432Z,100751.55
2023-12-08T22:30:58.671Z,100754.92
2023-12-08T22:33:29.075Z,100756.72
2023-12-08T22:36:01.629Z,100753.88
2023-12-08T22:38:31.859Z,100750.48
2023-12-08T22:41:02.198Z,100751.92
2023-12-08T22:43:34.661Z,100750.14
2023-12-08T22:46:05.463Z,100755.65
2023-12-08T22:48:35.812Z,100756.71
2023-12-08T22:51:14.259Z,100759.02
2023-12-08T22:53:46.900Z,100757.42
2023-12-08T22:56:17.350Z,100752.61
2023-12-08T22:58:47.872Z,100758.66
2023-12-08T23:01:18.280Z,100758.84
2023-12-08T23:03:48.594Z,100776.09
2023-12-08T23:06:18.852Z,100774.91
2023-12-08T23:08:49.158Z,100763.17
2023-12-08T23:11:20.704Z,100762.02
2023-12-08T23:13:51.110Z,100760.31
2023-12-08T23:16:21.422Z,100761.38
2023-12-08T23:18:51.809Z,100764.75
2023-12-08T23:21:22.255Z,100763.19
2023-12-08T23:23:52.572Z,100765.14
2023-12-08T23:26:22.802Z,100763.73
2023-12-08T23:28:53.010Z,100762.65
2023-12-08T23:31:23.311Z,100760.48
2023-12-08T23:33:53.763Z,100758.39
2023-12-08T23:36:24.227Z,100763.19
2023-12-08T23:38:54.538Z,100759.27
2023-12-08T23:41:24.799Z,100774.39
2023-12-08T23:43:55.061Z,100781.87
2023-12-08T23:46:25.268Z,100779.06
2023-12-08T23:48:57.529Z,100772.17
2023-12-08T23:51:28.676Z,100761.56
2023-12-08T23:53:58.996Z,100767.70
2023-12-08T23:56:29.285Z,100764.92
2023-12-08T23:58:59.529Z,100758.91
